Wetterdaten: Woche 05.10.09 - 11.10.09 (KW41)
Datum Zeit Temperatur Luftfeuchte Luftdruck Niederschlag Windrichtung Wind
05.10.2009 00:00 11,4 C 73 % 1017,5 hPa 0,0 l/m W 6,1 km/h (2 Bft)
05.10.2009 01:00 11,0 C 74 % 1017,6 hPa 0,0 l/m W 5,1 km/h (1 Bft)
05.10.2009 02:00 10,3 C 80 % 1017,4 hPa 0,0 l/m SW 3,1 km/h (1 Bft)
05.10.2009 03:00 10,1 C 84 % 1017,2 hPa 0,0 l/m S-SW 4,0 km/h (1 Bft)
05.10.2009 04:00 8,5 C 88 % 1017,0 hPa 0,0 l/m S-SW 3,6 km/h (1 Bft)
05.10.2009 05:00 7,4 C 89 % 1016,9 hPa 0,0 l/m N 2,4 km/h (1 Bft)
05.10.2009 06:00 6,5 C 91 % 1017,0 hPa 0,0 l/m N 0,8 km/h (0 Bft)
05.10.2009 07:00 5,9 C 94 % 1017,1 hPa 0,0 l/m N 0,8 km/h (0 Bft)
05.10.2009 08:00 6,9 C 93 % 1017,3 hPa 0,0 l/m N 0,3 km/h (0 Bft)
05.10.2009 09:00 9,5 C 86 % 1017,2 hPa 0,0 l/m N-NO 2,8 km/h (1 Bft)
05.10.2009 10:00 11,4 C 81 % 1016,9 hPa 0,0 l/m O-NO 2,3 km/h (1 Bft)
05.10.2009 11:00 13,1 C 76 % 1016,7 hPa 0,0 l/m S-SO 4,1 km/h (1 Bft)
05.10.2009 12:00 14,4 C 74 % 1016,1 hPa 0,0 l/m SW 6,4 km/h (2 Bft)
05.10.2009 13:00 15,9 C 70 % 1015,4 hPa 0,0 l/m SW 8,8 km/h (2 Bft)
05.10.2009 14:00 16,7 C 67 % 1014,8 hPa 0,0 l/m SW 9,1 km/h (2 Bft)
05.10.2009 15:00 17,2 C 64 % 1014,5 hPa 0,0 l/m W-SW 11,2 km/h (2 Bft)
05.10.2009 16:00 16,0 C 67 % 1014,4 hPa 0,0 l/m W 11,1 km/h (2 Bft)
05.10.2009 17:00 15,2 C 77 % 1013,9 hPa 0,0 l/m SW 7,6 km/h (2 Bft)
05.10.2009 18:00 14,3 C 84 % 1013,7 hPa 0,0 l/m W-SW 7,8 km/h (2 Bft)
05.10.2009 19:00 13,8 C 83 % 1014,1 hPa 0,2 l/m W-SW 6,3 km/h (2 Bft)
05.10.2009 20:00 13,2 C 89 % 1015,0 hPa 0,2 l/m SW 5,5 km/h (1 Bft)
05.10.2009 21:00 13,0 C 89 % 1015,1 hPa 0,0 l/m W-SW 12,2 km/h (2 Bft)
05.10.2009 22:00 13,3 C 85 % 1015,3 hPa 0,0 l/m SW 11,3 km/h (2 Bft)
05.10.2009 23:00 12,6 C 88 % 1015,5 hPa 0,0 l/m W-SW 11,8 km/h (2 Bft)
06.10.2009 00:00 12,6 C 87 % 1015,7 hPa 0,0 l/m W-SW 4,7 km/h (1 Bft)
06.10.2009 01:00 11,2 C 92 % 1015,8 hPa 0,0 l/m N 1,7 km/h (1 Bft)
06.10.2009 02:00 11,0 C 94 % 1016,0 hPa 0,0 l/m SW 8,3 km/h (2 Bft)
06.10.2009 03:00 11,8 C 92 % 1015,8 hPa 0,0 l/m SW 9,3 km/h (2 Bft)
06.10.2009 04:00 12,8 C 90 % 1015,6 hPa 0,0 l/m SW 14,6 km/h (3 Bft)
06.10.2009 05:00 13,1 C 88 % 1015,7 hPa 0,0 l/m SW 14,0 km/h (3 Bft)
06.10.2009 06:00 11,6 C 93 % 1015,6 hPa 0,0 l/m SW 13,4 km/h (3 Bft)
06.10.2009 07:00 11,6 C 93 % 1015,5 hPa 0,2 l/m SW 15,6 km/h (3 Bft)
06.10.2009 08:00 12,6 C 92 % 1015,6 hPa 0,0 l/m S-SW 14,1 km/h (3 Bft)
06.10.2009 09:00 14,9 C 86 % 1015,7 hPa 0,0 l/m SW 17,6 km/h (3 Bft)
06.10.2009 10:00 16,2 C 82 % 1015,9 hPa 0,0 l/m SW 13,7 km/h (3 Bft)
06.10.2009 11:00 16,6 C 80 % 1016,1 hPa 0,0 l/m S-SW 16,6 km/h (3 Bft)
06.10.2009 12:00 17,3 C 80 % 1016,1 hPa 0,0 l/m SW 11,5 km/h (2 Bft)
06.10.2009 13:00 18,4 C 78 % 1015,6 hPa 0,0 l/m SW 6,3 km/h (2 Bft)
06.10.2009 14:00 19,8 C 74 % 1014,9 hPa 0,0 l/m SW 6,7 km/h (2 Bft)
06.10.2009 15:00 20,0 C 73 % 1014,5 hPa 0,0 l/m SW 13,3 km/h (3 Bft)
06.10.2009 16:00 19,7 C 71 % 1014,8 hPa 0,0 l/m SW 16,1 km/h (3 Bft)
06.10.2009 17:00 19,2 C 73 % 1015,2 hPa 0,0 l/m SW 15,7 km/h (3 Bft)
06.10.2009 18:00 17,8 C 83 % 1015,8 hPa 0,0 l/m SW 8,2 km/h (2 Bft)
06.10.2009 19:00 16,5 C 90 % 1015,8 hPa 0,2 l/m SW 9,5 km/h (2 Bft)
06.10.2009 20:00 16,1 C 91 % 1015,8 hPa 0,0 l/m SW 12,1 km/h (2 Bft)
06.10.2009 21:00 16,2 C 89 % 1016,2 hPa 0,0 l/m SW 14,1 km/h (3 Bft)
06.10.2009 22:00 17,9 C 77 % 1016,4 hPa 0,0 l/m W-SW 21,3 km/h (4 Bft)
06.10.2009 23:00 17,7 C 77 % 1016,6 hPa 0,0 l/m W-SW 19,8 km/h (4 Bft)
07.10.2009 00:00 16,6 C 80 % 1016,7 hPa 0,0 l/m SW 7,2 km/h (2 Bft)
07.10.2009 01:00 14,3 C 89 % 1016,6 hPa 0,0 l/m SW 2,0 km/h (1 Bft)
07.10.2009 02:00 13,2 C 94 % 1016,8 hPa 0,0 l/m N 1,6 km/h (1 Bft)
07.10.2009 03:00 12,7 C 95 % 1016,8 hPa 0,0 l/m O-NO 1,7 km/h (1 Bft)
07.10.2009 04:00 12,1 C 95 % 1016,8 hPa 0,0 l/m O-SO 1,6 km/h (1 Bft)
07.10.2009 05:00 11,3 C 96 % 1016,8 hPa 0,0 l/m N 0,9 km/h (0 Bft)
07.10.2009 06:00 11,7 C 98 % 1016,6 hPa 0,0 l/m SW 8,4 km/h (2 Bft)
07.10.2009 07:00 13,2 C 98 % 1016,4 hPa 0,0 l/m SW 12,0 km/h (2 Bft)
07.10.2009 08:00 14,4 C 91 % 1016,4 hPa 0,0 l/m SW 11,6 km/h (2 Bft)
07.10.2009 09:00 16,1 C 86 % 1016,6 hPa 0,0 l/m SO 8,0 km/h (2 Bft)
07.10.2009 10:00 19,1 C 73 % 1016,6 hPa 0,0 l/m SO 10,8 km/h (2 Bft)
07.10.2009 11:00 21,5 C 63 % 1016,5 hPa 0,0 l/m W-SW 18,1 km/h (3 Bft)
07.10.2009 12:00 23,0 C 55 % 1016,2 hPa 0,0 l/m W-SW 18,4 km/h (3 Bft)
07.10.2009 13:00 24,1 C 50 % 1015,3 hPa 0,0 l/m S-SW 18,6 km/h (3 Bft)
07.10.2009 14:00 25,0 C 40 % 1014,5 hPa 0,0 l/m W-SW 21,2 km/h (4 Bft)
07.10.2009 15:00 25,2 C 40 % 1014,0 hPa 0,0 l/m W-SW 20,8 km/h (4 Bft)
07.10.2009 16:00 24,7 C 43 % 1013,2 hPa 0,0 l/m SW 17,3 km/h (3 Bft)
07.10.2009 17:00 23,7 C 49 % 1012,5 hPa 0,0 l/m SW 7,2 km/h (2 Bft)
07.10.2009 18:00 20,7 C 62 % 1011,9 hPa 0,0 l/m SW 3,5 km/h (1 Bft)
07.10.2009 19:00 17,8 C 74 % 1011,5 hPa 0,0 l/m N 0,3 km/h (0 Bft)
07.10.2009 20:00 16,1 C 82 % 1011,1 hPa 0,0 l/m N 0,0 km/h (0 Bft)
07.10.2009 21:00 16,3 C 83 % 1011,0 hPa 0,0 l/m N 0,3 km/h (0 Bft)
07.10.2009 22:00 16,3 C 83 % 1010,7 hPa 0,0 l/m N 1,5 km/h (1 Bft)
07.10.2009 23:00 17,3 C 77 % 1010,5 hPa 0,0 l/m SW 10,3 km/h (2 Bft)
08.10.2009 00:00 18,3 C 71 % 1010,5 hPa 0,0 l/m SW 11,7 km/h (2 Bft)
08.10.2009 01:00 17,3 C 76 % 1010,6 hPa 0,0 l/m SW 8,6 km/h (2 Bft)
08.10.2009 02:00 16,4 C 80 % 1010,4 hPa 0,0 l/m SW 7,8 km/h (2 Bft)
08.10.2009 03:00 16,1 C 82 % 1010,6 hPa 0,0 l/m SW 2,1 km/h (1 Bft)
08.10.2009 04:00 14,7 C 88 % 1010,7 hPa 0,0 l/m N 1,1 km/h (0 Bft)
08.10.2009 05:00 14,0 C 90 % 1011,1 hPa 0,0 l/m S-SW 1,7 km/h (1 Bft)
08.10.2009 06:00 14,5 C 90 % 1012,1 hPa 0,0 l/m W-SW 4,7 km/h (1 Bft)
08.10.2009 07:00 17,2 C 78 % 1012,7 hPa 0,0 l/m W 16,5 km/h (3 Bft)
08.10.2009 08:00 16,7 C 83 % 1013,1 hPa 0,2 l/m W-SW 9,3 km/h (2 Bft)
08.10.2009 09:00 15,7 C 90 % 1013,5 hPa 0,6 l/m SW 6,3 km/h (2 Bft)
08.10.2009 10:00 15,7 C 92 % 1013,8 hPa 0,0 l/m SW 12,9 km/h (3 Bft)
08.10.2009 11:00 16,5 C 90 % 1014,1 hPa 0,0 l/m SW 6,0 km/h (2 Bft)
08.10.2009 12:00 18,2 C 81 % 1014,2 hPa 0,0 l/m W-NW 11,8 km/h (2 Bft)
08.10.2009 13:00 19,1 C 75 % 1013,8 hPa 0,0 l/m W-SW 16,5 km/h (3 Bft)
08.10.2009 14:00 18,5 C 78 % 1013,6 hPa 0,0 l/m W 11,5 km/h (2 Bft)
08.10.2009 15:00 18,1 C 82 % 1013,7 hPa 0,4 l/m W-SW 7,5 km/h (2 Bft)
08.10.2009 16:00 16,7 C 90 % 1013,9 hPa 0,8 l/m SW 7,1 km/h (2 Bft)
08.10.2009 17:00 16,1 C 94 % 1014,2 hPa 1,0 l/m SW 7,9 km/h (2 Bft)
08.10.2009 18:00 15,6 C 95 % 1014,5 hPa 1,8 l/m SW 11,5 km/h (2 Bft)
08.10.2009 19:00 15,4 C 96 % 1014,6 hPa 3,2 l/m S-SW 10,8 km/h (2 Bft)
08.10.2009 20:00 15,0 C 96 % 1014,8 hPa 0,2 l/m S-SW 10,2 km/h (2 Bft)
08.10.2009 21:00 14,8 C 96 % 1015,1 hPa 0,0 l/m SW 4,3 km/h (1 Bft)
08.10.2009 22:00 14,7 C 96 % 1015,4 hPa 0,0 l/m SW 4,3 km/h (1 Bft)
08.10.2009 23:00 14,4 C 96 % 1015,5 hPa 0,0 l/m SW 10,2 km/h (2 Bft)
09.10.2009 00:00 14,2 C 96 % 1015,7 hPa 0,2 l/m SW 10,3 km/h (2 Bft)
09.10.2009 01:00 14,1 C 97 % 1015,7 hPa 2,0 l/m S-SW 5,8 km/h (1 Bft)
09.10.2009 02:00 14,0 C 97 % 1015,7 hPa 2,4 l/m S-SW 8,6 km/h (2 Bft)
09.10.2009 03:00 13,8 C 97 % 1015,5 hPa 0,0 l/m SW 9,8 km/h (2 Bft)
09.10.2009 04:00 13,8 C 97 % 1015,6 hPa 0,0 l/m SW 5,7 km/h (1 Bft)
09.10.2009 05:00 13,8 C 98 % 1015,5 hPa 0,2 l/m N 0,5 km/h (0 Bft)
09.10.2009 06:00 13,7 C 98 % 1015,5 hPa 0,0 l/m N 0,0 km/h (0 Bft)
09.10.2009 07:00 13,6 C 98 % 1015,5 hPa 0,0 l/m N 0,4 km/h (0 Bft)
09.10.2009 08:00 13,6 C 98 % 1015,8 hPa 0,0 l/m S-SW 1,9 km/h (1 Bft)
09.10.2009 09:00 13,7 C 98 % 1016,2 hPa 0,0 l/m N 0,5 km/h (0 Bft)
09.10.2009 10:00 14,1 C 98 % 1016,5 hPa 0,0 l/m O-NO 3,1 km/h (1 Bft)
09.10.2009 11:00 14,6 C 98 % 1016,5 hPa 0,0 l/m NO 5,9 km/h (2 Bft)
09.10.2009 12:00 14,8 C 97 % 1016,6 hPa 1,0 l/m O-NO 4,9 km/h (1 Bft)
09.10.2009 13:00 15,0 C 97 % 1016,3 hPa 0,8 l/m N-NO 7,1 km/h (2 Bft)
09.10.2009 14:00 14,7 C 95 % 1016,0 hPa 0,0 l/m O-NO 11,0 km/h (2 Bft)
09.10.2009 15:00 14,0 C 96 % 1015,8 hPa 0,0 l/m NO 10,5 km/h (2 Bft)
09.10.2009 16:00 13,7 C 96 % 1015,6 hPa 0,0 l/m NO 10,2 km/h (2 Bft)
09.10.2009 17:00 13,3 C 96 % 1015,2 hPa 0,0 l/m NO 8,3 km/h (2 Bft)
09.10.2009 18:00 13,2 C 97 % 1015,0 hPa 0,0 l/m O-NO 7,1 km/h (2 Bft)
09.10.2009 19:00 12,9 C 97 % 1015,4 hPa 0,0 l/m NO 5,9 km/h (2 Bft)
09.10.2009 20:00 12,7 C 98 % 1015,6 hPa 0,0 l/m NO 5,3 km/h (1 Bft)
09.10.2009 21:00 12,5 C 98 % 1015,7 hPa 0,0 l/m N-NO 6,8 km/h (2 Bft)
09.10.2009 22:00 12,3 C 98 % 1015,4 hPa 0,0 l/m O-NO 6,7 km/h (2 Bft)
09.10.2009 23:00 12,2 C 98 % 1015,0 hPa 0,0 l/m O-NO 4,5 km/h (1 Bft)
10.10.2009 00:00 12,2 C 99 % 1014,7 hPa 0,0 l/m N 2,3 km/h (1 Bft)
10.10.2009 01:00 12,2 C 99 % 1014,6 hPa 0,0 l/m NO 1,6 km/h (1 Bft)
10.10.2009 02:00 12,1 C 99 % 1014,2 hPa 1,2 l/m NO 2,3 km/h (1 Bft)
10.10.2009 03:00 12,1 C 99 % 1013,6 hPa 0,4 l/m SW 4,4 km/h (1 Bft)
10.10.2009 04:00 12,1 C 99 % 1013,3 hPa 0,2 l/m N 0,5 km/h (0 Bft)
10.10.2009 05:00 12,3 C 99 % 1012,9 hPa 0,0 l/m N 1,7 km/h (1 Bft)
10.10.2009 06:00 12,3 C 99 % 1012,6 hPa 0,0 l/m N 1,6 km/h (1 Bft)
10.10.2009 07:00 12,6 C 99 % 1012,3 hPa 0,0 l/m SW 3,1 km/h (1 Bft)
10.10.2009 08:00 12,8 C 99 % 1012,3 hPa 0,0 l/m SW 6,5 km/h (2 Bft)
10.10.2009 09:00 13,3 C 99 % 1012,4 hPa 0,0 l/m SW 8,0 km/h (2 Bft)
10.10.2009 10:00 14,2 C 99 % 1012,4 hPa 0,0 l/m SW 14,1 km/h (3 Bft)
10.10.2009 11:00 15,2 C 93 % 1012,4 hPa 0,0 l/m W-SW 15,4 km/h (3 Bft)
10.10.2009 12:00 14,9 C 93 % 1012,6 hPa 3,2 l/m W-SW 14,4 km/h (3 Bft)
10.10.2009 13:00 14,6 C 95 % 1012,9 hPa 0,6 l/m W-SW 16,8 km/h (3 Bft)
10.10.2009 14:00 14,8 C 94 % 1012,8 hPa 1,0 l/m W-SW 16,5 km/h (3 Bft)
10.10.2009 15:00 12,9 C 91 % 1013,3 hPa 12,4 l/m W 15,6 km/h (3 Bft)
10.10.2009 16:00 12,2 C 96 % 1013,3 hPa 3,2 l/m W-NW 6,1 km/h (2 Bft)
10.10.2009 17:00 12,6 C 97 % 1013,7 hPa 5,0 l/m W-NW 8,6 km/h (2 Bft)
10.10.2009 18:00 12,3 C 96 % 1014,2 hPa 0,0 l/m W-SW 12,2 km/h (2 Bft)
10.10.2009 19:00 11,7 C 95 % 1014,6 hPa 0,0 l/m W 8,6 km/h (2 Bft)
10.10.2009 20:00 11,3 C 95 % 1014,9 hPa 0,0 l/m W 12,4 km/h (3 Bft)
10.10.2009 21:00 11,0 C 95 % 1015,4 hPa 0,0 l/m W 11,8 km/h (2 Bft)
10.10.2009 22:00 11,2 C 95 % 1015,7 hPa 0,0 l/m W-SW 7,9 km/h (2 Bft)
10.10.2009 23:00 11,2 C 95 % 1015,9 hPa 0,0 l/m W-SW 9,1 km/h (2 Bft)
11.10.2009 00:00 11,2 C 95 % 1015,8 hPa 0,0 l/m W 7,1 km/h (2 Bft)
11.10.2009 01:00 11,1 C 95 % 1015,9 hPa 0,0 l/m W-SW 9,8 km/h (2 Bft)
11.10.2009 02:00 11,1 C 94 % 1016,2 hPa 0,0 l/m W-SW 15,2 km/h (3 Bft)
11.10.2009 03:00 10,9 C 93 % 1016,3 hPa 0,0 l/m W 14,6 km/h (3 Bft)
11.10.2009 04:00 10,7 C 93 % 1016,6 hPa 0,0 l/m W 11,4 km/h (2 Bft)
11.10.2009 05:00 10,5 C 94 % 1016,9 hPa 0,0 l/m W 8,9 km/h (2 Bft)
11.10.2009 06:00 10,1 C 94 % 1017,0 hPa 0,0 l/m W-SW 10,1 km/h (2 Bft)
11.10.2009 07:00 9,6 C 95 % 1017,1 hPa 0,0 l/m W-SW 8,3 km/h (2 Bft)
11.10.2009 08:00 9,3 C 96 % 1017,3 hPa 0,0 l/m W-SW 10,7 km/h (2 Bft)
11.10.2009 09:00 10,2 C 95 % 1017,5 hPa 0,0 l/m W-SW 17,4 km/h (3 Bft)
11.10.2009 10:00 12,2 C 87 % 1017,5 hPa 0,0 l/m W-SW 17,3 km/h (3 Bft)
11.10.2009 11:00 13,0 C 80 % 1017,2 hPa 0,0 l/m W-SW 20,1 km/h (4 Bft)
11.10.2009 12:00 13,7 C 75 % 1016,8 hPa 0,0 l/m W-NW 18,5 km/h (3 Bft)
11.10.2009 13:00 13,8 C 69 % 1016,2 hPa 0,0 l/m W 20,5 km/h (4 Bft)
11.10.2009 14:00 13,7 C 70 % 1015,5 hPa 0,0 l/m W 19,2 km/h (3 Bft)
11.10.2009 15:00 14,0 C 70 % 1015,0 hPa 0,0 l/m W 18,6 km/h (3 Bft)
11.10.2009 16:00 14,2 C 65 % 1014,3 hPa 0,0 l/m W-NW 17,2 km/h (3 Bft)
11.10.2009 17:00 13,5 C 70 % 1013,8 hPa 0,0 l/m W 13,7 km/h (3 Bft)
11.10.2009 18:00 12,9 C 75 % 1013,5 hPa 0,0 l/m W-SW 10,9 km/h (2 Bft)
11.10.2009 19:00 12,2 C 79 % 1013,2 hPa 0,0 l/m SW 14,9 km/h (3 Bft)
11.10.2009 20:00 12,0 C 80 % 1012,5 hPa 0,0 l/m W-SW 18,4 km/h (3 Bft)
11.10.2009 21:00 12,1 C 80 % 1011,9 hPa 0,0 l/m W-SW 20,4 km/h (4 Bft)
11.10.2009 22:00 12,1 C 75 % 1011,6 hPa 0,0 l/m W-SW 27,1 km/h (4 Bft)
11.10.2009 23:00 11,8 C 72 % 1011,0 hPa 0,0 l/m W-SW 28,7 km/h (4 Bft)
Min-Datum _ 05.10.09 07.10.09 08.10.09 - - 05.10.09
_ Min-Zeit 07:30 14:45 00:50 - - 00:20
Minimum _ 5,7 C 37 % 1010,2 hPa - - 0,0 km/h (0 Bft)
Max-Datum _ 07.10.09 10.10.09 05.10.09 10.10.09 - 11.10.09
_ Max-Zeit 15:40 10:10 01:05 15:40 - 22:45
Maximum _ 25,4 C 100 % 1017,7 hPa 12,4 l/m - 37,0 km/h
W-SW (5 Bft)
Durchschnitt _ 14,3 C 86 % 1014,9 hPa #42,8 l/m SW 9,3 km/h (2 Bft)